createdAt,value
2023-04-06T00:09:42.798Z,-1.38
2023-04-06T00:19:45.195Z,-1.42
2023-04-06T00:29:47.553Z,-1.52
2023-04-06T00:39:50.102Z,-1.59
2023-04-06T00:49:53.635Z,-1.62
2023-04-06T00:59:56.130Z,-1.73
2023-04-06T01:09:59.111Z,-1.80
2023-04-06T01:20:01.710Z,-1.84
2023-04-06T01:30:04.417Z,-1.92
2023-04-06T01:40:20.352Z,-2.00
2023-04-06T01:50:22.603Z,-2.08
2023-04-06T02:00:24.904Z,-2.12
2023-04-06T02:10:27.377Z,-2.21
2023-04-06T02:20:29.718Z,-2.26
2023-04-06T02:30:34.083Z,-2.32
2023-04-06T02:40:36.472Z,-2.42
2023-04-06T02:50:38.984Z,-2.50
2023-04-06T03:00:41.293Z,-2.58
2023-04-06T03:10:43.707Z,-2.64
2023-04-06T03:20:46.078Z,-2.72
2023-04-06T03:30:48.554Z,-2.75
2023-04-06T03:40:50.892Z,-2.84
2023-04-06T03:50:53.287Z,-2.82
2023-04-06T04:00:55.620Z,-2.91
2023-04-06T04:10:58.101Z,-2.95
2023-04-06T04:21:00.514Z,-2.96
2023-04-06T04:31:02.772Z,-3.03
2023-04-06T04:41:05.112Z,-3.11
2023-04-06T04:51:07.620Z,-3.12
2023-04-06T05:01:10.713Z,-3.17
2023-04-06T05:11:13.320Z,-3.22
2023-04-06T05:21:15.770Z,-3.15
2023-04-06T05:31:18.360Z,-3.02
2023-04-06T05:41:21.789Z,-2.83
2023-04-06T05:51:24.666Z,-2.59
2023-04-06T06:01:27.247Z,-2.28
2023-04-06T06:11:29.999Z,-1.84
2023-04-06T06:21:32.751Z,-1.40
2023-04-06T06:31:35.236Z,-1.00
2023-04-06T06:41:37.597Z,-0.53
2023-04-06T06:51:40.060Z,-0.01
2023-04-06T07:01:42.888Z,0.53
2023-04-06T07:11:45.806Z,1.17
2023-04-06T07:21:50.442Z,1.86
2023-04-06T07:31:52.963Z,2.53
2023-04-06T07:41:55.710Z,3.18
2023-04-06T07:51:58.334Z,3.93
2023-04-06T08:02:00.689Z,4.75
2023-04-06T08:12:03.321Z,5.69
2023-04-06T08:22:05.973Z,6.82
2023-04-06T08:32:08.596Z,7.93
2023-04-06T08:42:40.962Z,8.18
2023-04-06T08:52:45.541Z,8.69
2023-04-06T09:02:50.749Z,9.04
2023-04-06T09:13:04.170Z,9.58
2023-04-06T09:23:06.586Z,10.17
2023-04-06T09:33:09.075Z,10.81
2023-04-06T09:43:11.653Z,11.25
2023-04-06T09:53:14.811Z,11.48
2023-04-06T10:03:31.119Z,11.97
2023-04-06T10:13:34.700Z,12.90
2023-04-06T10:23:45.554Z,13.11
2023-04-06T10:33:59.472Z,13.09
2023-04-06T10:44:02.761Z,13.69
2023-04-06T10:54:06.739Z,13.82
2023-04-06T11:04:11.148Z,14.37
2023-04-06T11:14:13.857Z,14.83
2023-04-06T11:24:25.280Z,15.10
2023-04-06T11:34:30.208Z,15.22
2023-04-06T11:44:42.192Z,15.40
2023-04-06T11:54:44.878Z,16.23
2023-04-06T12:04:47.819Z,16.23
2023-04-06T12:14:50.210Z,16.03
2023-04-06T12:24:52.803Z,15.83
2023-04-06T12:34:55.080Z,16.22
2023-04-06T12:44:57.675Z,16.25
2023-04-06T12:55:01.555Z,16.38
2023-04-06T13:05:04.805Z,16.48
2023-04-06T13:15:07.753Z,16.47
2023-04-06T13:25:10.368Z,16.25
2023-04-06T13:35:13.146Z,16.51
2023-04-06T13:45:16.042Z,16.62
2023-04-06T13:55:18.496Z,16.87
2023-04-06T14:05:20.949Z,16.63
2023-04-06T14:15:24.046Z,16.30
2023-04-06T14:25:27.522Z,16.33
2023-04-06T14:35:32.149Z,17.09
2023-04-06T14:45:37.963Z,17.72
2023-04-06T14:55:42.580Z,17.42
2023-04-06T15:05:45.618Z,16.93
2023-04-06T15:15:48.237Z,16.43
2023-04-06T15:25:51.032Z,15.36
2023-04-06T15:35:53.738Z,14.88
2023-04-06T15:45:58.215Z,14.57
2023-04-06T15:56:05.788Z,14.55
2023-04-06T16:06:09.313Z,14.42
2023-04-06T16:16:12.015Z,13.83
2023-04-06T16:26:18.901Z,13.31
2023-04-06T16:36:25.818Z,13.08
2023-04-06T16:46:36.391Z,13.14
2023-04-06T16:56:39.029Z,13.11
2023-04-06T17:06:41.687Z,12.68
2023-04-06T17:16:44.554Z,12.13
2023-04-06T17:26:47.173Z,11.59
2023-04-06T17:36:49.488Z,11.13
2023-04-06T17:46:52.171Z,10.83
2023-04-06T17:56:55.264Z,10.52
2023-04-06T18:06:58.238Z,10.22
2023-04-06T18:17:01.022Z,9.90
2023-04-06T18:27:03.656Z,9.71
2023-04-06T18:37:06.256Z,9.56
2023-04-06T18:47:09.193Z,9.55
2023-04-06T18:57:11.839Z,9.57
2023-04-06T19:07:14.307Z,9.58
2023-04-06T19:17:17.536Z,9.64
2023-04-06T19:27:20.333Z,9.56
2023-04-06T19:37:23.683Z,9.44
2023-04-06T19:47:26.488Z,9.28
2023-04-06T19:57:29.209Z,9.11
2023-04-06T20:07:31.781Z,8.98
2023-04-06T20:17:34.431Z,8.82
2023-04-06T20:27:37.209Z,8.70
2023-04-06T20:37:40.275Z,8.64
2023-04-06T20:47:43.654Z,8.60
2023-04-06T20:57:47.004Z,8.49
2023-04-06T21:07:49.831Z,8.37
2023-04-06T21:17:52.301Z,8.25
2023-04-06T21:27:55.041Z,8.13
2023-04-06T21:37:57.801Z,8.06
2023-04-06T21:48:00.919Z,8.04
2023-04-06T21:58:03.404Z,8.05
2023-04-06T22:08:05.969Z,8.04
2023-04-06T22:18:09.213Z,8.03
2023-04-06T22:28:11.721Z,8.13
2023-04-06T22:38:14.094Z,8.25
2023-04-06T22:48:16.937Z,8.12
2023-04-06T22:58:19.388Z,7.95
2023-04-06T23:08:21.839Z,7.77
2023-04-06T23:18:24.275Z,7.62
2023-04-06T23:28:27.034Z,7.47
2023-04-06T23:38:29.439Z,7.28
2023-04-06T23:48:32.066Z,7.06
2023-04-06T23:58:34.476Z,6.82
